sensor_id;sensor_type;location;lat;lon;timestamp;P1;durP1;ratioP1;P2;durP2;ratioP2
36839;SDS011;24406;51.640;9.566;2023-08-31T00:02:40;9.43;;;8.55;;
36839;SDS011;24406;51.640;9.566;2023-08-31T00:07:42;12.18;;;9.55;;
36839;SDS011;24406;51.640;9.566;2023-08-31T00:12:45;11.95;;;10.65;;
36839;SDS011;24406;51.640;9.566;2023-08-31T00:17:46;11.52;;;9.35;;
36839;SDS011;24406;51.640;9.566;2023-08-31T00:22:48;11.02;;;8.68;;
36839;SDS011;24406;51.640;9.566;2023-08-31T00:27:51;11.43;;;8.77;;
36839;SDS011;24406;51.640;9.566;2023-08-31T00:32:54;10.75;;;8.50;;
36839;SDS011;24406;51.640;9.566;2023-08-31T00:38:01;9.98;;;8.88;;
36839;SDS011;24406;51.640;9.566;2023-08-31T00:43:06;10.52;;;9.43;;
36839;SDS011;24406;51.640;9.566;2023-08-31T00:48:10;12.02;;;10.75;;
36839;SDS011;24406;51.640;9.566;2023-08-31T00:53:17;11.82;;;10.02;;
36839;SDS011;24406;51.640;9.566;2023-08-31T00:58:20;13.27;;;9.93;;
36839;SDS011;24406;51.640;9.566;2023-08-31T01:03:24;10.18;;;9.20;;
36839;SDS011;24406;51.640;9.566;2023-08-31T01:08:42;11.05;;;10.05;;
36839;SDS011;24406;51.640;9.566;2023-08-31T01:13:58;12.45;;;10.65;;
36839;SDS011;24406;51.640;9.566;2023-08-31T01:19:04;11.20;;;10.07;;
36839;SDS011;24406;51.640;9.566;2023-08-31T01:24:11;13.20;;;10.05;;
36839;SDS011;24406;51.640;9.566;2023-08-31T01:29:19;11.57;;;9.98;;
36839;SDS011;24406;51.640;9.566;2023-08-31T01:34:21;11.10;;;10.00;;
36839;SDS011;24406;51.640;9.566;2023-08-31T01:39:26;11.38;;;10.27;;
36839;SDS011;24406;51.640;9.566;2023-08-31T01:44:35;12.07;;;10.85;;
36839;SDS011;24406;51.640;9.566;2023-08-31T01:49:39;12.63;;;11.23;;
36839;SDS011;24406;51.640;9.566;2023-08-31T01:54:45;13.73;;;11.20;;
36839;SDS011;24406;51.640;9.566;2023-08-31T01:59:47;17.63;;;11.30;;
36839;SDS011;24406;51.640;9.566;2023-08-31T02:04:54;12.90;;;11.55;;
36839;SDS011;24406;51.640;9.566;2023-08-31T02:09:59;13.18;;;11.15;;
36839;SDS011;24406;51.640;9.566;2023-08-31T02:15:05;12.73;;;11.40;;
36839;SDS011;24406;51.640;9.566;2023-08-31T02:20:08;13.65;;;11.77;;
36839;SDS011;24406;51.640;9.566;2023-08-31T02:25:11;17.10;;;12.18;;
36839;SDS011;24406;51.640;9.566;2023-08-31T02:30:14;19.55;;;11.95;;
36839;SDS011;24406;51.640;9.566;2023-08-31T02:35:16;15.32;;;11.77;;
36839;SDS011;24406;51.640;9.566;2023-08-31T02:40:19;11.38;;;10.00;;
36839;SDS011;24406;51.640;9.566;2023-08-31T02:45:22;13.77;;;11.02;;
36839;SDS011;24406;51.640;9.566;2023-08-31T02:50:25;11.95;;;10.73;;
36839;SDS011;24406;51.640;9.566;2023-08-31T02:55:28;13.93;;;11.20;;
36839;SDS011;24406;51.640;9.566;2023-08-31T03:00:29;17.77;;;11.45;;
36839;SDS011;24406;51.640;9.566;2023-08-31T03:05:31;14.73;;;11.15;;
36839;SDS011;24406;51.640;9.566;2023-08-31T03:10:34;16.45;;;11.98;;
36839;SDS011;24406;51.640;9.566;2023-08-31T03:15:36;15.73;;;11.18;;
36839;SDS011;24406;51.640;9.566;2023-08-31T03:20:38;15.57;;;13.70;;
36839;SDS011;24406;51.640;9.566;2023-08-31T03:25:41;20.00;;;12.57;;
36839;SDS011;24406;51.640;9.566;2023-08-31T03:30:42;16.23;;;12.82;;
36839;SDS011;24406;51.640;9.566;2023-08-31T03:35:45;17.90;;;12.95;;
36839;SDS011;24406;51.640;9.566;2023-08-31T03:40:55;12.93;;;10.75;;
36839;SDS011;24406;51.640;9.566;2023-08-31T03:45:57;19.00;;;13.00;;
36839;SDS011;24406;51.640;9.566;2023-08-31T03:51:00;16.15;;;12.57;;
36839;SDS011;24406;51.640;9.566;2023-08-31T03:56:03;21.73;;;14.07;;
36839;SDS011;24406;51.640;9.566;2023-08-31T04:01:05;19.95;;;14.68;;
36839;SDS011;24406;51.640;9.566;2023-08-31T04:06:07;18.45;;;15.15;;
36839;SDS011;24406;51.640;9.566;2023-08-31T09:21:20;3.92;;;2.45;;
36839;SDS011;24406;51.640;9.566;2023-08-31T09:27:45;2.58;;;1.92;;
36839;SDS011;24406;51.640;9.566;2023-08-31T09:39:55;4.32;;;2.45;;
36839;SDS011;24406;51.640;9.566;2023-08-31T10:32:23;5.85;;;3.03;;
36839;SDS011;24406;51.640;9.566;2023-08-31T10:37:26;2.80;;;2.35;;
36839;SDS011;24406;51.640;9.566;2023-08-31T10:42:28;3.88;;;2.60;;
36839;SDS011;24406;51.640;9.566;2023-08-31T10:47:37;6.13;;;2.67;;
36839;SDS011;24406;51.640;9.566;2023-08-31T10:52:42;7.95;;;3.25;;
36839;SDS011;24406;51.640;9.566;2023-08-31T10:57:44;4.40;;;2.33;;
36839;SDS011;24406;51.640;9.566;2023-08-31T11:02:47;3.80;;;2.25;;
36839;SDS011;24406;51.640;9.566;2023-08-31T11:07:49;3.38;;;2.03;;
36839;SDS011;24406;51.640;9.566;2023-08-31T11:12:53;1.98;;;1.45;;
36839;SDS011;24406;51.640;9.566;2023-08-31T11:17:57;3.63;;;1.40;;
36839;SDS011;24406;51.640;9.566;2023-08-31T11:22:59;1.60;;;1.20;;
36839;SDS011;24406;51.640;9.566;2023-08-31T11:28:01;2.13;;;1.13;;
36839;SDS011;24406;51.640;9.566;2023-08-31T11:33:07;1.42;;;1.10;;
36839;SDS011;24406;51.640;9.566;2023-08-31T11:38:11;2.58;;;1.25;;
36839;SDS011;24406;51.640;9.566;2023-08-31T11:43:14;2.63;;;1.60;;
36839;SDS011;24406;51.640;9.566;2023-08-31T11:48:17;2.55;;;1.75;;
36839;SDS011;24406;51.640;9.566;2023-08-31T11:53:19;2.00;;;1.45;;
36839;SDS011;24406;51.640;9.566;2023-08-31T11:58:21;2.97;;;1.67;;
36839;SDS011;24406;51.640;9.566;2023-08-31T12:03:26;1.98;;;1.80;;
36839;SDS011;24406;51.640;9.566;2023-08-31T12:08:28;2.63;;;1.42;;
36839;SDS011;24406;51.640;9.566;2023-08-31T12:13:31;3.10;;;1.83;;
36839;SDS011;24406;51.640;9.566;2023-08-31T12:18:36;5.13;;;1.65;;
36839;SDS011;24406;51.640;9.566;2023-08-31T12:23:38;3.45;;;1.60;;
36839;SDS011;24406;51.640;9.566;2023-08-31T12:28:40;2.90;;;1.67;;
36839;SDS011;24406;51.640;9.566;2023-08-31T12:33:43;2.30;;;1.70;;
36839;SDS011;24406;51.640;9.566;2023-08-31T12:38:44;3.70;;;2.35;;
36839;SDS011;24406;51.640;9.566;2023-08-31T12:43:46;3.15;;;2.10;;
36839;SDS011;24406;51.640;9.566;2023-08-31T12:48:49;1.20;;;1.10;;
36839;SDS011;24406;51.640;9.566;2023-08-31T12:53:51;1.63;;;1.20;;
36839;SDS011;24406;51.640;9.566;2023-08-31T12:58:52;1.95;;;1.10;;
36839;SDS011;24406;51.640;9.566;2023-08-31T13:03:56;2.47;;;1.20;;
36839;SDS011;24406;51.640;9.566;2023-08-31T13:08:58;2.50;;;1.20;;
36839;SDS011;24406;51.640;9.566;2023-08-31T13:14:00;1.45;;;1.08;;
36839;SDS011;24406;51.640;9.566;2023-08-31T13:19:03;2.50;;;1.45;;
36839;SDS011;24406;51.640;9.566;2023-08-31T13:24:05;1.30;;;1.20;;
36839;SDS011;24406;51.640;9.566;2023-08-31T13:29:07;0.90;;;0.90;;
36839;SDS011;24406;51.640;9.566;2023-08-31T13:34:12;2.78;;;1.10;;
36839;SDS011;24406;51.640;9.566;2023-08-31T13:39:15;3.17;;;1.65;;
36839;SDS011;24406;51.640;9.566;2023-08-31T13:44:17;1.77;;;1.40;;
36839;SDS011;24406;51.640;9.566;2023-08-31T13:49:21;2.60;;;1.83;;
36839;SDS011;24406;51.640;9.566;2023-08-31T13:54:23;1.95;;;1.50;;
36839;SDS011;24406;51.640;9.566;2023-08-31T13:59:25;1.83;;;1.50;;
36839;SDS011;24406;51.640;9.566;2023-08-31T14:04:29;2.03;;;1.30;;
36839;SDS011;24406;51.640;9.566;2023-08-31T14:09:31;4.20;;;1.63;;
36839;SDS011;24406;51.640;9.566;2023-08-31T14:14:32;2.85;;;1.30;;
36839;SDS011;24406;51.640;9.566;2023-08-31T14:19:35;3.92;;;1.70;;
36839;SDS011;24406;51.640;9.566;2023-08-31T14:24:37;3.45;;;1.63;;
36839;SDS011;24406;51.640;9.566;2023-08-31T14:29:39;3.20;;;1.27;;
36839;SDS011;24406;51.640;9.566;2023-08-31T14:34:41;2.70;;;1.40;;
36839;SDS011;24406;51.640;9.566;2023-08-31T14:39:43;4.40;;;1.40;;
36839;SDS011;24406;51.640;9.566;2023-08-31T14:44:45;4.53;;;1.52;;
36839;SDS011;24406;51.640;9.566;2023-08-31T14:49:47;2.42;;;1.35;;
36839;SDS011;24406;51.640;9.566;2023-08-31T14:54:49;3.53;;;1.48;;
36839;SDS011;24406;51.640;9.566;2023-08-31T14:59:51;3.67;;;1.77;;
36839;SDS011;24406;51.640;9.566;2023-08-31T15:04:55;2.45;;;1.42;;
36839;SDS011;24406;51.640;9.566;2023-08-31T15:09:56;2.65;;;1.83;;
36839;SDS011;24406;51.640;9.566;2023-08-31T15:14:58;2.85;;;1.58;;
36839;SDS011;24406;51.640;9.566;2023-08-31T15:20:01;3.70;;;1.80;;
36839;SDS011;24406;51.640;9.566;2023-08-31T15:25:04;3.15;;;1.80;;
36839;SDS011;24406;51.640;9.566;2023-08-31T15:30:08;2.35;;;2.10;;
36839;SDS011;24406;51.640;9.566;2023-08-31T15:35:12;2.83;;;1.80;;
36839;SDS011;24406;51.640;9.566;2023-08-31T15:40:14;2.80;;;1.90;;
36839;SDS011;24406;51.640;9.566;2023-08-31T15:45:16;3.05;;;1.70;;
36839;SDS011;24406;51.640;9.566;2023-08-31T15:50:19;3.08;;;2.60;;
36839;SDS011;24406;51.640;9.566;2023-08-31T15:55:20;2.35;;;2.15;;
36839;SDS011;24406;51.640;9.566;2023-08-31T16:00:22;3.00;;;2.35;;
36839;SDS011;24406;51.640;9.566;2023-08-31T16:05:26;2.17;;;2.08;;
36839;SDS011;24406;51.640;9.566;2023-08-31T16:10:27;2.72;;;2.10;;
36839;SDS011;24406;51.640;9.566;2023-08-31T16:15:29;2.53;;;2.33;;
36839;SDS011;24406;51.640;9.566;2023-08-31T16:20:32;4.05;;;2.40;;
36839;SDS011;24406;51.640;9.566;2023-08-31T16:25:37;3.80;;;2.17;;
36839;SDS011;24406;51.640;9.566;2023-08-31T16:30:39;2.42;;;2.22;;
36839;SDS011;24406;51.640;9.566;2023-08-31T16:35:42;2.70;;;2.50;;
36839;SDS011;24406;51.640;9.566;2023-08-31T16:40:43;2.67;;;2.40;;
36839;SDS011;24406;51.640;9.566;2023-08-31T16:45:46;3.08;;;2.60;;
36839;SDS011;24406;51.640;9.566;2023-08-31T16:50:50;2.42;;;2.33;;
36839;SDS011;24406;51.640;9.566;2023-08-31T16:55:52;2.67;;;2.45;;
36839;SDS011;24406;51.640;9.566;2023-08-31T17:00:54;2.80;;;2.60;;
36839;SDS011;24406;51.640;9.566;2023-08-31T17:05:57;2.65;;;2.30;;
36839;SDS011;24406;51.640;9.566;2023-08-31T17:10:58;3.65;;;2.92;;
36839;SDS011;24406;51.640;9.566;2023-08-31T17:16:00;4.20;;;3.85;;
36839;SDS011;24406;51.640;9.566;2023-08-31T17:21:03;4.32;;;3.92;;
36839;SDS011;24406;51.640;9.566;2023-08-31T17:26:05;5.70;;;4.40;;
36839;SDS011;24406;51.640;9.566;2023-08-31T17:31:06;7.78;;;6.82;;
36839;SDS011;24406;51.640;9.566;2023-08-31T17:36:11;12.60;;;8.07;;
36839;SDS011;24406;51.640;9.566;2023-08-31T17:41:13;7.38;;;6.68;;
36839;SDS011;24406;51.640;9.566;2023-08-31T17:46:20;7.70;;;6.95;;
36839;SDS011;24406;51.640;9.566;2023-08-31T17:51:23;6.10;;;5.55;;
36839;SDS011;24406;51.640;9.566;2023-08-31T17:56:25;6.82;;;5.55;;
36839;SDS011;24406;51.640;9.566;2023-08-31T18:01:27;6.45;;;5.88;;
36839;SDS011;24406;51.640;9.566;2023-08-31T18:06:30;6.70;;;5.03;;
36839;SDS011;24406;51.640;9.566;2023-08-31T18:11:31;6.15;;;5.70;;
36839;SDS011;24406;51.640;9.566;2023-08-31T18:16:33;6.75;;;6.22;;
36839;SDS011;24406;51.640;9.566;2023-08-31T18:21:37;6.55;;;5.95;;
36839;SDS011;24406;51.640;9.566;2023-08-31T18:26:38;6.13;;;5.63;;
36839;SDS011;24406;51.640;9.566;2023-08-31T18:31:43;6.68;;;6.15;;
36839;SDS011;24406;51.640;9.566;2023-08-31T18:36:46;8.52;;;7.72;;
36839;SDS011;24406;51.640;9.566;2023-08-31T18:41:48;18.05;;;11.13;;
36839;SDS011;24406;51.640;9.566;2023-08-31T18:46:49;10.27;;;8.60;;
36839;SDS011;24406;51.640;9.566;2023-08-31T18:51:53;10.15;;;6.93;;
36839;SDS011;24406;51.640;9.566;2023-08-31T18:56:54;11.77;;;9.50;;
36839;SDS011;24406;51.640;9.566;2023-08-31T19:01:56;9.05;;;6.70;;
36839;SDS011;24406;51.640;9.566;2023-08-31T19:06:59;8.80;;;7.38;;
36839;SDS011;24406;51.640;9.566;2023-08-31T19:12:01;8.32;;;7.50;;
36839;SDS011;24406;51.640;9.566;2023-08-31T19:17:03;7.53;;;6.82;;
36839;SDS011;24406;51.640;9.566;2023-08-31T19:22:06;7.32;;;6.60;;
36839;SDS011;24406;51.640;9.566;2023-08-31T19:27:08;9.30;;;8.35;;
36839;SDS011;24406;51.640;9.566;2023-08-31T19:32:14;8.07;;;7.35;;
36839;SDS011;24406;51.640;9.566;2023-08-31T19:37:17;9.50;;;6.82;;
36839;SDS011;24406;51.640;9.566;2023-08-31T19:48:08;7.10;;;6.50;;
36839;SDS011;24406;51.640;9.566;2023-08-31T19:53:12;5.05;;;4.65;;
36839;SDS011;24406;51.640;9.566;2023-08-31T19:58:25;4.60;;;4.20;;
36839;SDS011;24406;51.640;9.566;2023-08-31T20:08:56;5.20;;;4.70;;
36839;SDS011;24406;51.640;9.566;2023-08-31T20:19:27;6.32;;;5.72;;
36839;SDS011;24406;51.640;9.566;2023-08-31T20:24:48;6.95;;;5.65;;
36839;SDS011;24406;51.640;9.566;2023-08-31T20:34:55;6.07;;;5.55;;
36839;SDS011;24406;51.640;9.566;2023-08-31T20:40:06;6.30;;;5.65;;
36839;SDS011;24406;51.640;9.566;2023-08-31T20:45:19;6.13;;;5.63;;
36839;SDS011;24406;51.640;9.566;2023-08-31T20:50:28;7.15;;;5.28;;
36839;SDS011;24406;51.640;9.566;2023-08-31T20:55:31;5.75;;;5.28;;
36839;SDS011;24406;51.640;9.566;2023-08-31T21:00:33;7.53;;;6.80;;
36839;SDS011;24406;51.640;9.566;2023-08-31T21:05:48;8.88;;;6.38;;
36839;SDS011;24406;51.640;9.566;2023-08-31T21:16:18;9.02;;;8.32;;
36839;SDS011;24406;51.640;9.566;2023-08-31T21:21:23;9.10;;;8.07;;
36839;SDS011;24406;51.640;9.566;2023-08-31T21:26:27;7.97;;;7.20;;
36839;SDS011;24406;51.640;9.566;2023-08-31T21:31:29;8.60;;;7.88;;
36839;SDS011;24406;51.640;9.566;2023-08-31T21:36:31;8.10;;;7.43;;
36839;SDS011;24406;51.640;9.566;2023-08-31T21:41:34;8.50;;;7.70;;
36839;SDS011;24406;51.640;9.566;2023-08-31T21:46:35;7.97;;;7.28;;
36839;SDS011;24406;51.640;9.566;2023-08-31T21:51:38;11.43;;;8.45;;
36839;SDS011;24406;51.640;9.566;2023-08-31T21:56:41;9.50;;;8.52;;
36839;SDS011;24406;51.640;9.566;2023-08-31T22:01:42;8.73;;;7.80;;
36839;SDS011;24406;51.640;9.566;2023-08-31T22:06:44;8.52;;;7.57;;
36839;SDS011;24406;51.640;9.566;2023-08-31T22:11:50;9.05;;;8.13;;
36839;SDS011;24406;51.640;9.566;2023-08-31T22:16:52;10.00;;;7.82;;
36839;SDS011;24406;51.640;9.566;2023-08-31T22:21:55;9.05;;;8.23;;
36839;SDS011;24406;51.640;9.566;2023-08-31T22:26:58;9.13;;;8.20;;
36839;SDS011;24406;51.640;9.566;2023-08-31T22:32:00;7.78;;;7.03;;
36839;SDS011;24406;51.640;9.566;2023-08-31T22:37:02;6.85;;;6.30;;
36839;SDS011;24406;51.640;9.566;2023-08-31T22:42:05;6.50;;;5.90;;
36839;SDS011;24406;51.640;9.566;2023-08-31T22:47:07;10.23;;;6.45;;
36839;SDS011;24406;51.640;9.566;2023-08-31T22:52:09;9.63;;;6.90;;
36839;SDS011;24406;51.640;9.566;2023-08-31T22:57:13;7.10;;;6.13;;
36839;SDS011;24406;51.640;9.566;2023-08-31T23:02:14;7.20;;;6.60;;
36839;SDS011;24406;51.640;9.566;2023-08-31T23:07:16;6.13;;;5.65;;
36839;SDS011;24406;51.640;9.566;2023-08-31T23:12:19;7.07;;;6.40;;
36839;SDS011;24406;51.640;9.566;2023-08-31T23:17:21;9.00;;;6.93;;
36839;SDS011;24406;51.640;9.566;2023-08-31T23:22:23;7.30;;;6.60;;
36839;SDS011;24406;51.640;9.566;2023-08-31T23:27:26;8.48;;;7.70;;
36839;SDS011;24406;51.640;9.566;2023-08-31T23:32:31;7.72;;;7.03;;
36839;SDS011;24406;51.640;9.566;2023-08-31T23:37:32;7.65;;;7.05;;
36839;SDS011;24406;51.640;9.566;2023-08-31T23:42:35;8.27;;;7.57;;
36839;SDS011;24406;51.640;9.566;2023-08-31T23:47:37;11.95;;;10.18;;
36839;SDS011;24406;51.640;9.566;2023-08-31T23:52:39;77.90;;;10.98;;
36839;SDS011;24406;51.640;9.566;2023-08-31T23:57:42;18.80;;;14.13;;
